KSPG/SPG METAR and TAF weather

Enter ICAO airport designator
Station Type Date Time Source
KSPG METAR 2020/01/20 09:53 UTC NOAA

KSPG 200953Z AUTO 36011KT 10SM CLR 12/03 A3011 RMK AO2 SLP196 T01220028


Station Type Date Time Source
KSPG Decoded METAR 2020/01/20 09:53 UTC NOAA

ST PETERSBURG WHITTED AIRPORT , FL, United States (KSPG) 27-46N 082-38W 2M
Jan 20, 2020 - 04:53 AM EST / 2020.01.20 0953 UTC
Wind: from the N (360 degrees) at 13 MPH (11 KT):0
Visibility: 10 mile(s):0
Sky conditions: clear
Temperature: 54.0 F (12.2 C)
Dew Point: 37.0 F (2.8 C)
Relative Humidity: 52%
Pressure (altimeter): 30.11 in. Hg (1019 hPa)
ob: KSPG 200953Z AUTO 36011KT 10SM CLR 12/03 A3011 RMK AO2 SLP196 T01220028
cycle: 10

Station Type Date Time Source
KSPG TAF UTC NOAA

Error!

Example: see airport list